Fair Seas — V7PD2 — position and weather

sailwx.info

Track history (hours):
 
Tides and Currents Weather Stations Pressure Air Temp Water Temp Dewpoint Dewpoint Depression Visibility Wind Speed Wind Dir Waves Ship Positions

Fair Seas

Last reported at 2017-Jul-21 04:31 UTC. Time now 2017-Jul-25 02:27 UTC.
Position N 01°20' E 103°19'.

Length 250 m; draft 8.5 m.

Type: Ship (hazmat cat C). MMSI: 538003211.

Date/timePositionNaut miles runAvg speedWind from/ knotsBaromVisibWave heightAir tempDewpointWater temp
2017-Jul-21 04:31N 01°20' E 103°19'111.2
2017-Jul-21 04:23N 01°19' E 103°20'411.0
2017-Jul-21 04:00N 01°16' E 103°23'5 9.7
2017-Jul-21 03:30N 01°14' E 103°27'510.0
2017-Jul-21 03:00N 01°13' E 103°32'510.1
2017-Jul-21 02:30N 01°12' E 103°37'510.0
2017-Jul-21 02:00N 01°10' E 103°42'4 8.8
2017-Jul-21 01:30N 01°10' E 103°46'611.8
2017-Jul-21 01:00N 01°12' E 103°51'510.1
2017-Jul-21 00:30N 01°15' E 103°56'3 1.5
2017-Jul-20 22:31N 01°17' E 103°58'0 0.0
2017-Jul-20 22:28N 01°17' E 103°58'0 0.0
2017-Jul-20 21:55N 01°17' E 103°58'0 0.0
2017-Jul-20 20:13N 01°17' E 103°58'0 0.0
2017-Jul-20 19:52N 01°17' E 103°58'0 0.0
2017-Jul-20 19:28N 01°17' E 103°58'0 0.0
2017-Jul-20 18:55N 01°17' E 103°58'0 0.0
2017-Jul-20 18:28N 01°17' E 103°58'0 0.0
2017-Jul-20 17:58N 01°17' E 103°58'0 0.0
2017-Jul-20 17:28N 01°17' E 103°58'0 0.0
2017-Jul-20 16:58N 01°17' E 103°58'0 0.0
2017-Jul-20 16:28N 01°17' E 103°58'0 0.0
2017-Jul-20 15:58N 01°17' E 103°58'0 0.0
2017-Jul-20 15:25N 01°17' E 103°58'0 0.1
2017-Jul-20 14:40N 01°17' E 103°58'0 0.0
2017-Jul-20 13:46N 01°17' E 103°58'0 0.2
2017-Jul-20 13:22N 01°17' E 103°58'0 0.2
2017-Jul-20 12:52N 01°17' E 103°58'0 0.1
2017-Jul-20 12:19N 01°17' E 103°58'0 0.0
2017-Jul-20 11:58N 01°17' E 103°58'0 0.0
2017-Jul-20 09:31N 01°17' E 103°58'0 0.1
2017-Jul-20 07:43N 01°17' E 103°58'0 0.2
2017-Jul-20 07:25N 01°17' E 103°58'0 0.1
2017-Jul-20 06:25N 01°17' E 103°58'0 0.0
2017-Jul-20 05:49N 01°17' E 103°58'0 0.0
2017-Jul-20 05:28N 01°17' E 103°58'0 0.0
2017-Jul-20 04:58N 01°17' E 103°58'0 0.0
2017-Jul-20 03:31N 01°17' E 103°58'0 0.2
2017-Jul-20 03:10N 01°17' E 103°58'0 0.0
2017-Jul-20 02:40N 01°17' E 103°58'0 0.5
2017-Jul-20 02:18N 01°17' E 103°58'0 0.5
2017-Jul-20 01:57N 01°17' E 103°58'1 2.5
2017-Jul-20 01:30N 01°16' E 103°59'3 5.7
2017-Jul-20 01:00N 01°16' E 104°02'  
Track history (hours):
 
Tides and Currents Weather Stations Pressure Air Temp Water Temp Dewpoint Dewpoint Depression Visibility Wind Speed Wind Dir Waves Ship Positions

Fair Seas

Last reported at 2017-Jul-21 04:31 UTC. Time now 2017-Jul-25 02:27 UTC.
Position N 01°20' E 103°19'.

Length 250 m; draft 8.5 m.

Type: Ship (hazmat cat C). MMSI: 538003211.

Date/timePositionNaut miles runAvg speedWind from/ knotsBaromVisibWave heightAir tempDewpointWater temp
2017-Jul-21 04:31N 01°20' E 103°19'111.2
2017-Jul-21 04:23N 01°19' E 103°20'411.0
2017-Jul-21 04:00N 01°16' E 103°23'5 9.7
2017-Jul-21 03:30N 01°14' E 103°27'510.0
2017-Jul-21 03:00N 01°13' E 103°32'510.1
2017-Jul-21 02:30N 01°12' E 103°37'510.0
2017-Jul-21 02:00N 01°10' E 103°42'4 8.8
2017-Jul-21 01:30N 01°10' E 103°46'611.8
2017-Jul-21 01:00N 01°12' E 103°51'510.1
2017-Jul-21 00:30N 01°15' E 103°56'3 1.5
2017-Jul-20 22:31N 01°17' E 103°58'0 0.0
2017-Jul-20 22:28N 01°17' E 103°58'0 0.0
2017-Jul-20 21:55N 01°17' E 103°58'0 0.0
2017-Jul-20 20:13N 01°17' E 103°58'0 0.0
2017-Jul-20 19:52N 01°17' E 103°58'0 0.0
2017-Jul-20 19:28N 01°17' E 103°58'0 0.0
2017-Jul-20 18:55N 01°17' E 103°58'0 0.0
2017-Jul-20 18:28N 01°17' E 103°58'0 0.0
2017-Jul-20 17:58N 01°17' E 103°58'0 0.0
2017-Jul-20 17:28N 01°17' E 103°58'0 0.0
2017-Jul-20 16:58N 01°17' E 103°58'0 0.0
2017-Jul-20 16:28N 01°17' E 103°58'0 0.0
2017-Jul-20 15:58N 01°17' E 103°58'0 0.0
2017-Jul-20 15:25N 01°17' E 103°58'0 0.1
2017-Jul-20 14:40N 01°17' E 103°58'0 0.0
2017-Jul-20 13:46N 01°17' E 103°58'0 0.2
2017-Jul-20 13:22N 01°17' E 103°58'0 0.2
2017-Jul-20 12:52N 01°17' E 103°58'0 0.1
2017-Jul-20 12:19N 01°17' E 103°58'0 0.0
2017-Jul-20 11:58N 01°17' E 103°58'0 0.0
2017-Jul-20 09:31N 01°17' E 103°58'0 0.1
2017-Jul-20 07:43N 01°17' E 103°58'0 0.2
2017-Jul-20 07:25N 01°17' E 103°58'0 0.1
2017-Jul-20 06:25N 01°17' E 103°58'0 0.0
2017-Jul-20 05:49N 01°17' E 103°58'0 0.0
2017-Jul-20 05:28N 01°17' E 103°58'0 0.0
2017-Jul-20 04:58N 01°17' E 103°58'0 0.0
2017-Jul-20 03:31N 01°17' E 103°58'0 0.2
2017-Jul-20 03:10N 01°17' E 103°58'0 0.0
2017-Jul-20 02:40N 01°17' E 103°58'0 0.5
2017-Jul-20 02:18N 01°17' E 103°58'0 0.5
2017-Jul-20 01:57N 01°17' E 103°58'1 2.5
2017-Jul-20 01:30N 01°16' E 103°59'3 5.7
2017-Jul-20 01:00N 01°16' E 104°02'  

Dump ship's entire track history